Time;durP1;ratioP1;P1;durP2;ratioP2;P2;SDS_P1;SDS_P2;PMS_P1;PMS_P2;Temp;Humidity;BMP_temperature;BMP_pressure;BME280_temperature;BME280_humidity;BME280_pressure;Samples;Min_cycle;Max_cycle;Signal;HPM_P1;HPM_P2
2021/06/10 00:00:22;;;;;;;21.15;19.02;;;18.60;68.30;19.90;100972.00;;;;5117985;28;20408;-82
2021/06/10 00:02:51;;;;;;;21.67;19.55;;;18.60;68.00;20.00;100962.00;;;;5114295;28;20439;-82
2021/06/10 00:05:22;;;;;;;20.40;18.10;;;18.70;67.80;19.80;100961.00;;;;5112571;28;20650;-82
2021/06/10 00:07:50;;;;;;;21.70;19.50;;;18.70;67.80;19.70;100952.00;;;;5111597;28;20452;-83
2021/06/10 00:10:21;;;;;;;26.02;23.33;;;18.60;68.00;19.90;100967.00;;;;5102040;28;20796;-83
2021/06/10 00:12:50;;;;;;;27.40;24.80;;;18.50;68.50;20.00;100973.00;;;;5111433;28;20475;-83
2021/06/10 00:15:21;;;;;;;27.03;23.57;;;18.70;68.90;19.80;100972.00;;;;5114103;28;20193;-83
2021/06/10 00:17:49;;;;;;;27.47;23.40;;;18.60;69.70;19.60;100974.00;;;;5122435;28;20453;-83
2021/06/10 00:20:21;;;;;;;27.07;24.27;;;18.40;70.20;19.60;100965.00;;;;5126152;28;21936;-83
2021/06/10 00:22:49;;;;;;;25.80;23.10;;;18.30;70.60;19.50;100964.00;;;;5142343;27;20586;-83
2021/06/10 00:25:18;;;;;;;24.70;22.33;;;18.20;71.20;19.50;100966.00;;;;5111245;28;20488;-83
2021/06/10 00:27:45;;;;;;;22.30;20.20;;;18.20;71.60;19.40;100958.00;;;;5118633;28;20440;-82
2021/06/10 00:30:17;;;;;;;21.50;19.30;;;18.10;72.00;19.40;100958.00;;;;5117064;28;20859;-83
2021/06/10 00:32:46;;;;;;;21.63;19.43;;;18.10;71.60;19.30;100963.00;;;;5116672;28;20449;-83
2021/06/10 00:35:16;;;;;;;23.70;21.50;;;18.10;71.40;19.30;100962.00;;;;5117658;28;20449;-83
2021/06/10 00:37:47;;;;;;;22.00;19.80;;;18.10;71.30;19.30;100963.00;;;;5114242;28;20443;-83
2021/06/10 00:40:16;;;;;;;21.90;19.60;;;18.10;71.10;19.30;100975.00;;;;5125705;27;20497;-82
2021/06/10 00:42:44;;;;;;;25.20;20.70;;;18.10;71.10;19.30;100969.00;;;;5128961;27;20454;-83
2021/06/10 00:45:16;;;;;;;23.73;21.27;;;18.00;71.50;217.30;165044.00;;;;5125334;27;20463;-82
2021/06/10 00:47:45;;;;;;;27.93;21.97;;;18.00;71.90;19.30;100970.00;;;;5127542;27;20528;-82
2021/06/10 00:50:15;;;;;;;26.23;23.47;;;18.10;72.30;19.20;100978.00;;;;5128231;27;20480;-81
2021/06/10 00:52:47;;;;;;;31.10;27.90;;;17.90;72.60;19.30;100973.00;;;;5140082;27;20463;-83
2021/06/10 00:55:16;;;;;;;31.15;28.10;;;17.90;72.60;19.40;100964.00;;;;5131339;27;20464;-83
2021/06/10 00:57:44;;;;;;;30.65;27.55;;;18.00;72.10;19.40;100969.00;;;;5130728;28;20428;-82
2021/06/10 01:00:15;;;;;;;27.97;24.63;;;18.10;71.80;19.20;100975.00;;;;5115977;27;20282;-81
2021/06/10 01:02:44;;;;;;;26.23;23.40;;;18.00;71.70;19.10;100980.00;;;;5123025;27;20457;-82
2021/06/10 01:05:12;;;;;;;26.70;23.90;;;17.90;72.10;19.10;100977.00;;;;5119970;27;21115;-81
2021/06/10 01:07:59;;;;;;;31.73;28.30;;;17.80;72.40;19.20;70546.00;;;;5110747;27;20411;-82
2021/06/10 01:10:40;;;;;;;27.90;25.00;;;17.80;72.70;52.70;165028.00;;;;5117561;27;20424;-81
2021/06/10 01:13:19;;;;;;;27.55;24.75;;;18.00;72.10;19.30;100971.00;;;;5119049;28;20495;-82
2021/06/10 01:15:53;;;;;;;28.58;25.58;;;17.90;71.30;19.20;100976.00;;;;5118677;27;20838;-83
2021/06/10 01:18:23;;;;;;;28.95;25.73;;;18.00;70.80;19.20;100974.00;;;;5115273;27;20423;-81
2021/06/10 01:20:52;;;;;;;25.77;23.07;;;18.00;70.60;52.70;164949.00;;;;5118569;27;20197;-82
2021/06/10 01:23:30;;;;;;;28.17;25.30;;;17.90;70.40;19.10;100976.00;;;;5117387;27;20935;-82
2021/06/10 01:26:20;;;;;;;31.10;26.40;;;17.90;71.00;19.20;100975.00;;;;5113987;28;20495;-82
2021/06/10 01:28:51;;;;;;;33.60;26.90;;;17.90;70.70;19.20;100974.00;;;;5126704;27;20420;-83
2021/06/10 01:31:20;;;;;;;30.52;27.23;;;17.90;70.50;19.10;100969.00;;;;5107743;28;20927;-82
2021/06/10 01:33:52;;;;;;;28.03;23.87;;;17.90;70.50;18.90;100973.00;;;;5114162;27;20203;-82
2021/06/10 01:36:23;;;;;;;28.50;23.03;;;17.80;70.70;18.70;100976.00;;;;5117958;27;20501;-81
2021/06/10 01:38:58;;;;;;;32.30;28.10;;;17.70;71.30;18.90;100978.00;;;;5116123;27;20489;-82
2021/06/10 01:41:27;;;;;;;32.88;29.38;;;17.60;72.00;19.00;100979.00;;;;5114496;27;20424;-82
2021/06/10 01:44:00;;;;;;;32.23;25.97;;;17.60;71.90;18.80;100986.00;;;;5114132;28;20234;-82
2021/06/10 01:46:30;;;;;;;33.87;30.50;;;17.60;71.90;19.00;100980.00;;;;5116669;27;20428;-82
2021/06/10 01:49:00;;;;;;;33.25;29.13;;;17.60;72.40;217.30;164909.00;;;;5107671;27;20494;-83
2021/06/10 01:51:31;;;;;;;31.30;28.10;;;17.60;72.40;19.00;100983.00;;;;5107498;28;20422;-81
2021/06/10 01:54:04;;;;;;;32.30;28.80;;;17.70;72.20;18.90;100976.00;;;;5113371;27;20511;-82
2021/06/10 01:56:33;;;;;;;36.95;30.25;;;17.70;71.70;18.90;100976.00;;;;5111730;28;20428;-82
2021/06/10 01:59:04;;;;;;;36.15;30.17;;;17.70;71.50;18.90;100978.00;;;;5112098;27;20442;-82
2021/06/10 02:01:33;;;;;;;33.30;29.63;;;17.70;71.50;18.90;100980.00;;;;5110334;28;20460;-83
2021/06/10 02:04:03;;;;;;;32.85;29.40;;;17.60;71.50;18.90;100984.00;;;;5130202;27;20416;-83
2021/06/10 02:06:33;;;;;;;34.08;30.13;;;17.70;71.60;18.80;100979.00;;;;5115841;27;20419;-83
2021/06/10 02:09:05;;;;;;;33.90;30.20;;;17.60;71.40;18.80;100973.00;;;;5108790;27;20457;-82
2021/06/10 02:11:34;;;;;;;33.80;29.40;;;17.60;71.10;18.70;100975.00;;;;5117359;27;20419;-83
2021/06/10 02:14:04;;;;;;;34.47;30.77;;;17.50;71.10;18.70;100972.00;;;;5117165;27;20424;-82
2021/06/10 02:16:34;;;;;;;32.33;28.70;;;17.50;71.80;18.70;100983.00;;;;5118865;27;20424;-82
2021/06/10 02:19:02;;;;;;;33.10;27.35;;;17.40;71.80;18.60;100980.00;;;;5110686;27;20419;-82
2021/06/10 02:21:31;;;;;;;29.35;26.23;;;17.40;71.90;18.60;100978.00;;;;5117343;27;20413;-82
2021/06/10 02:23:59;;;;;;;28.65;25.50;;;17.40;72.10;18.60;100978.00;;;;5138279;27;20869;-82
2021/06/10 02:26:27;;;;;;;29.70;26.63;;;17.40;71.90;18.70;70416.00;;;;5111978;28;20489;-82
2021/06/10 02:28:56;;;;;;;30.50;27.40;;;17.50;71.70;18.60;100972.00;;;;5114864;27;20404;-82
2021/06/10 02:31:26;;;;;;;31.90;27.93;;;17.50;71.60;18.70;100979.00;;;;5125030;27;20512;-83
2021/06/10 02:33:54;;;;;;;31.63;27.83;;;17.50;71.60;18.70;70424.00;;;;5120292;27;20420;-83
2021/06/10 02:36:22;;;;;;;32.88;28.13;;;17.50;71.60;18.70;100978.00;;;;5129906;28;20415;-83
2021/06/10 02:38:56;;;;;;;31.48;27.35;;;17.50;71.70;217.30;164766.00;;;;5126929;27;20436;-83
2021/06/10 02:41:28;;;;;;;32.78;29.00;;;17.50;71.60;18.60;100975.00;;;;5125621;27;20487;-83
2021/06/10 02:43:58;;;;;;;32.70;28.60;;;17.50;71.60;18.60;100812.00;;;;5114486;27;20428;-82
2021/06/10 02:46:28;;;;;;;31.63;27.80;;;17.50;71.70;18.60;70416.00;;;;5113439;27;20459;-82
2021/06/10 02:48:58;;;;;;;32.43;28.30;;;17.50;71.90;18.60;100974.00;;;;5122183;27;20416;-83
2021/06/10 02:51:31;;;;;;;33.08;29.58;;;17.50;71.90;18.60;100971.00;;;;5118525;28;20416;-83
2021/06/10 02:54:02;;;;;;;33.95;27.60;;;17.50;72.10;18.60;100974.00;;;;5110650;28;20452;-83
2021/06/10 02:56:31;;;;;;;32.80;27.80;;;17.40;71.60;18.50;100898.00;;;;5119733;28;20416;-83
2021/06/10 02:59:01;;;;;;;33.72;29.77;;;17.30;71.30;18.50;100974.00;;;;5124122;28;20428;-82
2021/06/10 03:01:35;;;;;;;33.90;29.30;;;17.30;71.30;18.40;70367.00;;;;5117103;27;20406;-82
2021/06/10 03:04:05;;;;;;;31.58;28.25;;;17.20;71.10;18.40;100977.00;;;;5118904;28;21988;-83
2021/06/10 03:06:33;;;;;;;30.35;27.15;;;17.30;71.00;18.40;100699.00;;;;5120297;28;20751;-81
2021/06/10 03:09:03;;;;;;;28.85;25.85;;;17.20;71.10;18.40;70371.00;;;;5120249;28;20416;-82
2021/06/10 03:11:31;;;;;;;28.05;25.15;;;17.20;71.10;18.40;70371.00;;;;5120242;28;20491;-82
2021/06/10 03:14:01;;;;;;;27.98;24.98;;;17.20;71.10;18.40;100966.00;;;;5121239;27;20453;-82
2021/06/10 03:16:30;;;;;;;28.70;25.60;;;17.30;71.10;18.40;70367.00;;;;5120411;28;20538;-83
2021/06/10 03:18:59;;;;;;;29.58;26.02;;;17.30;70.70;217.30;164655.00;;;;5124558;28;20439;-82
2021/06/10 03:21:28;;;;;;;31.80;27.30;;;17.30;70.50;18.40;100967.00;;;;5130966;27;20408;-82
2021/06/10 03:23:56;;;;;;;27.67;23.90;;;17.30;70.50;18.40;100969.00;;;;5124818;28;20427;-82
2021/06/10 03:26:26;;;;;;;27.30;24.50;;;17.20;70.40;18.40;100975.00;;;;5123106;28;20424;-82
2021/06/10 03:28:55;;;;;;;26.58;23.73;;;17.30;70.70;18.40;100963.00;;;;5121523;27;20432;-82
2021/06/10 03:31:24;;;;;;;27.05;24.25;;;17.30;70.60;18.40;100965.00;;;;5124544;27;20447;-83
2021/06/10 03:33:54;;;;;;;28.27;24.77;;;17.30;70.50;18.40;100974.00;;;;5122534;28;20897;-83
2021/06/10 03:36:22;;;;;;;27.48;24.48;;;17.30;70.60;18.50;70372.00;;;;5121205;27;20478;-83
2021/06/10 03:38:51;;;;;;;28.73;25.63;;;17.30;70.80;52.70;164667.00;;;;5120595;28;20412;-83
2021/06/10 03:41:21;;;;;;;25.13;22.53;;;17.20;70.40;18.40;100982.00;;;;5135465;27;20492;-83
2021/06/10 03:43:49;;;;;;;25.38;22.67;;;17.30;70.80;18.40;100969.00;;;;5129566;28;20427;-83
2021/06/10 03:46:19;;;;;;;24.75;22.25;;;17.30;71.00;18.40;100975.00;;;;5137251;28;20412;-83
2021/06/10 03:48:50;;;;;;;26.60;22.80;;;17.30;70.80;18.40;100976.00;;;;5134332;28;20408;-82
2021/06/10 03:51:21;;;;;;;25.52;23.02;;;17.30;70.70;18.40;100965.00;;;;5136490;27;20419;-83
2021/06/10 03:53:52;;;;;;;23.60;21.20;;;17.30;70.50;18.40;100976.00;;;;5138291;27;20441;-83
2021/06/10 03:56:21;;;;;;;24.55;22.08;;;17.40;70.40;18.50;100968.00;;;;5134773;28;20429;-83
2021/06/10 03:58:48;;;;;;;24.77;22.25;;;17.40;69.80;18.50;100976.00;;;;5129343;28;20428;-83
2021/06/10 04:01:17;;;;;;;23.90;21.40;;;17.50;69.50;217.30;164766.00;;;;5123343;28;20449;-83
2021/06/10 04:03:45;;;;;;;24.75;22.35;;;17.50;69.30;18.80;100973.00;;;;5133491;28;20425;-82
2021/06/10 04:06:15;;;;;;;26.38;23.77;;;17.60;69.30;18.80;100972.00;;;;5130046;28;20634;-82
2021/06/10 04:08:44;;;;;;;25.80;23.20;;;17.70;69.40;18.80;100981.00;;;;5129834;28;20457;-82
2021/06/10 04:11:12;;;;;;;28.27;24.10;;;17.70;69.30;18.90;100973.00;;;;5128462;27;20417;-82
2021/06/10 04:13:40;;;;;;;26.50;23.70;;;17.70;69.10;18.90;100975.00;;;;5123025;28;20507;-83
2021/06/10 04:16:09;;;;;;;26.30;23.70;;;17.80;68.90;18.90;100975.00;;;;5117852;27;20499;-82
2021/06/10 04:18:37;;;;;;;24.83;22.43;;;17.80;68.90;19.00;100964.00;;;;5118013;28;20423;-82
2021/06/10 04:21:05;;;;;;;26.10;23.50;;;17.80;68.90;19.10;100970.00;;;;5122025;27;20431;-82
2021/06/10 04:23:32;;;;;;;25.30;22.70;;;17.90;68.90;19.20;70527.00;;;;5111177;27;20416;-82
2021/06/10 04:26:02;;;;;;;27.60;22.70;;;18.10;68.80;19.20;100968.00;;;;5123504;27;20530;-83
2021/06/10 04:28:30;;;;;;;26.02;23.33;;;18.10;68.60;52.70;165056.00;;;;5123140;27;20415;-82
2021/06/10 04:30:58;;;;;;;24.63;22.02;;;18.20;68.30;19.40;100965.00;;;;5128324;27;20422;-82
2021/06/10 04:33:26;;;;;;;23.70;21.30;;;18.20;68.10;19.50;70613.00;;;;5130775;27;20451;-83
2021/06/10 04:35:54;;;;;;;24.05;21.45;;;18.30;67.70;52.70;165191.00;;;;5121742;27;20452;-82
2021/06/10 04:38:22;;;;;;;25.60;22.90;;;18.40;67.60;19.60;100970.00;;;;5143302;27;20527;-81
2021/06/10 04:40:50;;;;;;;30.98;25.73;;;18.50;67.10;19.50;100971.00;;;;5114854;28;20422;-81
2021/06/10 04:43:19;;;;;;;26.63;23.45;;;18.50;66.20;19.50;100967.00;;;;5104837;28;20487;-82
2021/06/10 04:45:47;;;;;;;25.00;22.08;;;18.50;65.40;19.50;70619.00;;;;5114934;27;20424;-81
2021/06/10 04:48:15;;;;;;;25.75;22.60;;;18.50;65.00;19.60;70629.00;;;;5104966;27;20412;-81
2021/06/10 04:50:43;;;;;;;24.95;22.25;;;18.50;65.00;19.60;100976.00;;;;5114990;27;20430;-82
2021/06/10 04:53:11;;;;;;;24.95;21.60;;;18.50;64.80;19.60;100979.00;;;;5116359;27;20918;-82
2021/06/10 04:55:40;;;;;;;23.50;21.30;;;18.50;64.70;19.60;100981.00;;;;5113704;27;20424;-81
2021/06/10 04:58:08;;;;;;;24.97;22.47;;;18.50;64.10;19.60;100967.00;;;;5133600;27;20850;-82
2021/06/10 05:00:38;;;;;;;24.90;22.35;;;18.60;64.20;19.70;100980.00;;;;5110700;27;20427;-82
2021/06/10 05:03:06;;;;;;;23.90;21.50;;;18.70;64.60;19.90;100985.00;;;;5117605;27;20420;-83
2021/06/10 05:05:38;;;;;;;22.02;19.85;;;18.70;64.00;20.00;100975.00;;;;5116191;27;20465;-82
2021/06/10 05:08:06;;;;;;;23.45;20.48;;;18.90;63.40;20.20;100988.00;;;;5121184;27;20420;-81
2021/06/10 05:10:35;;;;;;;21.92;19.20;;;19.10;62.80;20.30;100987.00;;;;5137788;27;20419;-82
2021/06/10 05:13:03;;;;;;;21.30;19.30;;;19.10;61.50;217.30;165522.00;;;;5123500;27;20426;-83
2021/06/10 05:15:31;;;;;;;22.02;19.75;;;19.20;60.90;20.40;100999.00;;;;5123116;27;20430;-82
2021/06/10 05:18:00;;;;;;;22.80;20.20;;;19.20;60.70;20.30;100999.00;;;;5124770;28;20476;-83
2021/06/10 05:20:29;;;;;;;22.52;20.20;;;19.10;60.70;20.30;100997.00;;;;5124870;27;20416;-82
2021/06/10 05:22:56;;;;;;;19.08;17.13;;;19.20;60.70;20.30;100995.00;;;;5121505;28;20451;-83
2021/06/10 05:25:24;;;;;;;20.90;18.30;;;19.20;59.40;20.30;100988.00;;;;5118648;28;21077;-82
2021/06/10 05:27:52;;;;;;;20.75;18.75;;;19.20;58.30;20.30;100993.00;;;;5115434;28;20915;-82
2021/06/10 05:30:22;;;;;;;21.58;19.27;;;19.20;58.40;20.30;100985.00;;;;5114521;27;20497;-82
2021/06/10 05:32:51;;;;;;;21.42;19.33;;;19.20;58.90;20.40;100988.00;;;;5115392;27;20569;-82
2021/06/10 05:35:21;;;;;;;22.30;20.00;;;19.30;58.30;20.60;100983.00;;;;5105348;27;20929;-83
2021/06/10 05:37:49;;;;;;;24.05;20.30;;;19.40;57.10;20.80;100985.00;;;;5130030;27;20413;-82
2021/06/10 05:40:17;;;;;;;22.70;19.70;;;19.60;56.90;21.10;100990.00;;;;5130677;27;20515;-82
2021/06/10 05:42:45;;;;;;;22.83;19.80;;;19.80;56.10;21.30;100979.00;;;;5131098;27;20424;-82
2021/06/10 05:45:14;;;;;;;21.30;19.00;;;20.00;54.60;21.40;100985.00;;;;5119591;27;20419;-83
2021/06/10 05:47:43;;;;;;;20.63;18.55;;;20.10;53.50;21.50;100994.00;;;;5117347;28;20428;-82
2021/06/10 05:50:12;;;;;;;21.38;19.10;;;20.30;52.30;21.60;100993.00;;;;5115077;27;20503;-83
2021/06/10 05:52:43;;;;;;;22.33;19.90;;;20.30;51.40;21.70;100997.00;;;;5117805;27;20420;-82
2021/06/10 05:55:12;;;;;;;20.15;18.15;;;20.40;51.90;21.70;100997.00;;;;5123434;27;20416;-82
2021/06/10 05:57:39;;;;;;;20.48;18.30;;;20.50;48.50;21.70;100988.00;;;;5121559;27;20416;-83
2021/06/10 06:00:09;;;;;;;20.95;18.75;;;20.60;48.00;21.80;100986.00;;;;5117598;28;20430;-82
2021/06/10 06:02:40;;;;;;;19.85;17.85;;;20.60;47.80;21.90;101000.00;;;;5111750;28;20428;-82
2021/06/10 06:05:09;;;;;;;20.65;18.65;;;20.70;47.60;22.00;100999.00;;;;5112341;27;20439;-83
2021/06/10 06:07:37;;;;;;;21.13;19.07;;;20.80;45.70;22.00;100996.00;;;;5117173;27;20498;-82
2021/06/10 06:10:08;;;;;;;22.85;20.75;;;20.90;43.80;22.10;100996.00;;;;5117470;28;20438;-82
2021/06/10 06:12:39;;;;;;;21.77;19.57;;;20.90;43.70;22.10;100997.00;;;;5111294;28;20626;-83
2021/06/10 06:15:10;;;;;;;23.13;20.93;;;21.00;45.00;22.20;101000.00;;;;5111794;28;20426;-82
2021/06/10 06:17:38;;;;;;;24.67;22.27;;;21.10;45.90;22.20;101002.00;;;;5125407;27;20416;-83
2021/06/10 06:20:08;;;;;;;24.40;22.10;;;21.10;46.40;22.30;101009.00;;;;5120478;27;20412;-83
2021/06/10 06:22:40;;;;;;;23.40;21.10;;;21.00;47.10;22.30;71234.00;;;;5121073;27;20416;-83
2021/06/10 06:25:11;;;;;;;23.42;20.95;;;21.00;45.80;22.40;100999.00;;;;5116674;28;20424;-83
2021/06/10 06:27:40;;;;;;;21.42;19.30;;;21.10;45.40;22.30;101010.00;;;;5119710;27;20419;-82
2021/06/10 06:30:11;;;;;;;23.55;21.05;;;21.10;43.10;22.30;101001.00;;;;5122199;27;20419;-83
2021/06/10 06:32:39;;;;;;;22.10;19.80;;;21.20;43.20;22.30;101002.00;;;;5120875;27;20432;-83
2021/06/10 06:35:11;;;;;;;21.85;19.55;;;21.20;42.70;22.30;101013.00;;;;5128950;27;20431;-83
2021/06/10 06:37:39;;;;;;;21.08;19.08;;;21.30;42.10;22.20;101012.00;;;;5120398;27;20420;-82
2021/06/10 06:40:11;;;;;;;20.67;18.63;;;21.10;41.20;22.30;101010.00;;;;5116661;28;20415;-83
2021/06/10 06:42:39;;;;;;;25.30;20.17;;;21.10;40.90;22.50;101013.00;;;;5114399;27;20420;-83
2021/06/10 06:45:08;;;;;;;21.15;19.05;;;21.30;42.20;22.60;101020.00;;;;5115287;27;20467;-83
2021/06/10 06:47:36;;;;;;;20.95;18.75;;;21.50;38.90;52.70;166509.00;;;;5112674;27;20416;-83
2021/06/10 06:50:05;;;;;;;20.47;18.37;;;21.50;37.00;22.70;101017.00;;;;5114029;28;20486;-83
2021/06/10 06:52:33;;;;;;;22.10;18.30;;;21.50;38.20;22.80;101026.00;;;;5105644;27;20428;-83
2021/06/10 06:55:01;;;;;;;20.45;18.45;;;21.60;37.80;22.80;101029.00;;;;5114141;28;20413;-83
2021/06/10 06:57:30;;;;;;;21.73;19.42;;;21.60;38.40;22.90;101019.00;;;;5112222;27;20451;-83
2021/06/10 06:59:58;;;;;;;21.83;19.70;;;21.80;38.00;23.00;101020.00;;;;5116596;28;20416;-82
2021/06/10 07:02:26;;;;;;;21.95;19.80;;;21.90;37.90;23.10;101019.00;;;;5114781;27;20519;-83
2021/06/10 07:04:54;;;;;;;21.60;19.40;;;22.00;38.10;23.20;101015.00;;;;5113927;27;20465;-83
2021/06/10 07:07:22;;;;;;;22.50;20.27;;;22.00;36.70;23.30;71457.00;;;;5114009;27;20456;-83
2021/06/10 07:09:50;;;;;;;19.30;17.40;;;22.10;36.60;23.40;101007.00;;;;5130812;27;20413;-83
2021/06/10 07:12:18;;;;;;;19.50;17.60;;;22.30;35.80;23.50;101015.00;;;;5115822;27;20515;-83
2021/06/10 07:14:48;;;;;;;20.10;18.10;;;22.30;36.70;23.60;101017.00;;;;5113993;27;20449;-82
2021/06/10 07:17:15;;;;;;;18.08;16.17;;;22.50;34.60;23.60;101014.00;;;;5116503;27;20617;-82
2021/06/10 07:19:44;;;;;;;17.73;15.93;;;22.60;30.10;23.60;101027.00;;;;5119418;27;20420;-83
2021/06/10 07:22:12;;;;;;;20.58;15.73;;;22.60;29.60;23.60;101026.00;;;;5114348;27;20414;-82
2021/06/10 07:24:45;;;;;;;18.50;16.60;;;22.60;29.30;23.70;101020.00;;;;5111710;27;20447;-83
2021/06/10 07:27:14;;;;;;;17.15;15.15;;;22.80;28.70;23.60;101027.00;;;;5110396;28;20487;-82
2021/06/10 07:29:43;;;;;;;17.35;15.65;;;22.80;27.40;23.70;101026.00;;;;5108335;28;20610;-82
2021/06/10 07:32:13;;;;;;;16.20;14.50;;;22.80;28.70;23.80;101021.00;;;;5101871;28;20432;-83
2021/06/10 07:34:41;;;;;;;19.90;15.50;;;22.90;27.30;23.90;101020.00;;;;5102297;28;20428;-82
2021/06/10 07:37:10;;;;;;;16.63;15.03;;;23.00;26.40;23.90;101030.00;;;;5112426;28;20424;-82
2021/06/10 07:39:39;;;;;;;17.55;15.75;;;22.90;26.50;24.00;101033.00;;;;5119011;28;20423;-83
2021/06/10 07:42:09;;;;;;;20.02;18.02;;;23.10;26.40;24.20;101017.00;;;;5114488;28;20412;-82
2021/06/10 07:44:37;;;;;;;19.63;17.63;;;23.20;26.30;24.30;101032.00;;;;5116030;28;20428;-82
2021/06/10 07:47:06;;;;;;;17.70;16.10;;;23.50;25.20;24.40;101023.00;;;;5113830;28;20416;-84
2021/06/10 07:49:35;;;;;;;16.80;15.20;;;23.60;23.60;24.50;101023.00;;;;5114508;28;20422;-82
2021/06/10 07:52:04;;;;;;;17.52;15.73;;;23.60;21.20;24.50;101026.00;;;;5111064;28;21302;-82
2021/06/10 07:54:33;;;;;;;15.60;14.00;;;23.60;21.00;24.60;101031.00;;;;5111531;28;20809;-83
2021/06/10 07:57:13;;;;;;;15.90;14.40;;;23.70;21.50;24.80;71794.00;;;;5114810;28;20467;-83
2021/06/10 07:59:41;;;;;;;15.70;14.10;;;23.90;21.60;24.70;101028.00;;;;5119239;28;20446;-84
2021/06/10 08:02:10;;;;;;;17.80;15.90;;;23.90;16.80;24.60;101034.00;;;;5146110;27;20962;-83
2021/06/10 08:04:39;;;;;;;17.02;15.43;;;23.90;14.70;24.60;101030.00;;;;5134239;28;20404;-83
2021/06/10 08:07:09;;;;;;;16.35;14.65;;;23.90;15.90;24.60;101025.00;;;;5119202;28;20412;-82
2021/06/10 08:09:37;;;;;;;16.73;15.13;;;23.90;11.60;24.60;101022.00;;;;5137955;28;20396;-83
2021/06/10 08:12:06;;;;;;;16.35;14.85;;;23.80;11.00;24.60;101045.00;;;;5148289;27;20449;-83
2021/06/10 08:14:35;;;;;;;16.20;14.68;;;23.90;12.70;24.60;101030.00;;;;5143728;28;20435;-82
2021/06/10 08:17:03;;;;;;;16.25;14.75;;;23.90;12.80;217.30;167437.00;;;;5116288;28;20421;-83
2021/06/10 08:19:32;;;;;;;16.70;15.00;;;24.10;12.10;52.70;167493.00;;;;5121376;28;20415;-82
2021/06/10 08:22:01;;;;;;;16.83;15.33;;;24.20;14.60;24.90;101031.00;;;;5130959;28;20414;-84
2021/06/10 08:24:30;;;;;;;17.15;15.55;;;24.20;12.40;24.90;101033.00;;;;5124127;28;20424;-83
2021/06/10 08:26:58;;;;;;;16.83;15.13;;;24.20;12.30;24.90;101024.00;;;;5142650;27;20963;-83
2021/06/10 08:29:28;;;;;;;17.13;15.52;;;24.20;11.20;25.00;101017.00;;;;5118022;28;20930;-84
2021/06/10 08:31:58;;;;;;;17.25;15.65;;;24.30;11.30;25.10;101011.00;;;;5139010;27;21100;-83
2021/06/10 08:34:27;;;;;;;17.88;16.10;;;24.40;11.20;25.20;101026.00;;;;5118547;28;20450;-84
2021/06/10 08:36:54;;;;;;;16.40;14.90;;;24.40;10.60;25.30;101027.00;;;;5116376;28;20435;-81
2021/06/10 08:39:24;;;;;;;17.52;15.88;;;24.50;11.70;25.40;101031.00;;;;5116573;28;20450;-83
2021/06/10 08:41:53;;;;;;;17.58;15.77;;;24.70;12.50;25.40;101031.00;;;;5113767;28;20909;-82
2021/06/10 08:44:24;;;;;;;17.70;16.00;;;24.80;8.00;25.40;101036.00;;;;5108735;28;20455;-82
2021/06/10 08:46:54;;;;;;;17.90;16.10;;;24.80;6.50;25.40;101034.00;;;;5107928;28;20505;-83
2021/06/10 08:49:23;;;;;;;17.63;15.82;;;24.80;6.00;25.50;101035.00;;;;5109029;28;20416;-83
2021/06/10 08:51:52;;;;;;;18.33;16.63;;;24.70;5.20;25.60;101040.00;;;;5124726;27;20418;-82
2021/06/10 08:54:20;;;;;;;17.60;15.90;;;24.80;2.60;25.60;101037.00;;;;5107744;28;20419;-83
2021/06/10 08:56:49;;;;;;;17.77;16.17;;;24.90;4.00;25.70;101039.00;;;;5118947;28;20430;-83
2021/06/10 08:59:17;;;;;;;18.08;16.27;;;25.00;2.60;25.60;101036.00;;;;5128768;27;20426;-83
2021/06/10 09:01:46;;;;;;;17.03;15.60;;;25.00;4.10;25.60;101030.00;;;;5143892;27;20467;-82
2021/06/10 09:04:15;;;;;;;18.60;16.90;;;25.00;4.90;25.70;101047.00;;;;5127006;28;20424;-82
2021/06/10 09:06:48;;;;;;;18.42;16.60;;;25.10;2.80;25.80;101031.00;;;;5111809;28;20446;-83
2021/06/10 09:09:20;;;;;;;16.50;14.90;;;25.20;3.60;25.90;101040.00;;;;5128506;27;20443;-83
2021/06/10 09:11:50;;;;;;;17.90;16.30;;;25.30;6.10;25.90;101040.00;;;;5109585;27;20421;-83
2021/06/10 09:14:18;;;;;;;16.63;15.13;;;25.40;2.60;25.90;101039.00;;;;5111123;27;20807;-83
2021/06/10 09:16:50;;;;;;;17.20;15.48;;;25.40;4.60;26.00;101037.00;;;;5103985;27;20424;-82
2021/06/10 09:19:20;;;;;;;16.10;14.60;;;25.50;6.30;26.20;101038.00;;;;5103366;28;20520;-83
2021/06/10 09:21:49;;;;;;;17.20;15.60;;;25.60;2.70;26.10;101033.00;;;;5108962;28;20500;-81
2021/06/10 09:24:24;;;;;;;17.13;15.52;;;25.60;1.30;26.20;101029.00;;;;5106857;27;20424;-84
2021/06/10 09:27:05;;;;;;;17.95;16.25;;;25.70;1.50;26.30;101029.00;;;;5124400;27;20503;-84
2021/06/10 09:29:42;;;;;;;17.05;15.45;;;25.80;1.00;26.30;101030.00;;;;5126187;27;20544;-83
2021/06/10 09:32:17;;;;;;;17.25;15.65;;;25.90;1.00;26.50;101031.00;;;;5111445;27;20427;-83
2021/06/10 09:34:50;;;;;;;17.00;15.43;;;26.00;1.00;26.60;101030.00;;;;5110884;28;20957;-83
2021/06/10 09:37:30;;;;;;;16.20;14.70;;;26.10;1.00;26.60;101028.00;;;;5110786;27;20412;-82
2021/06/10 09:40:00;;;;;;;16.50;15.10;;;26.00;1.00;26.70;101022.00;;;;5119925;27;20459;-83
2021/06/10 09:42:32;;;;;;;17.02;15.52;;;26.10;1.00;26.70;101024.00;;;;5113189;28;20420;-83
2021/06/10 09:45:01;;;;;;;17.20;15.50;;;26.10;1.00;26.80;101025.00;;;;5110796;28;20431;-83
2021/06/10 09:47:32;;;;;;;16.00;14.48;;;26.20;1.00;26.90;101022.00;;;;5119893;27;20405;-83
2021/06/10 09:50:18;;;;;;;14.93;13.52;;;26.30;1.00;27.00;101033.00;;;;5131413;27;20451;-82
2021/06/10 09:52:49;;;;;;;14.00;12.70;;;26.50;1.00;27.00;101042.00;;;;5110723;28;20428;-82
2021/06/10 09:59:52;;;;;;;14.40;13.00;;;26.70;1.00;27.20;101018.00;;;;5108690;27;20485;-83
2021/06/10 10:02:24;;;;;;;13.68;12.30;;;26.80;1.00;27.30;101016.00;;;;5125636;27;20507;-85
2021/06/10 10:05:02;;;;;;;12.85;11.35;;;26.80;1.00;27.40;101019.00;;;;5111825;27;20424;-84
2021/06/10 10:07:33;;;;;;;14.50;13.00;;;27.00;1.00;27.50;101021.00;;;;5111602;27;20528;-83
2021/06/10 10:10:04;;;;;;;13.73;12.43;;;27.10;1.00;27.40;101025.00;;;;5111065;28;21031;-83
2021/06/10 10:12:34;;;;;;;14.63;13.15;;;26.80;1.00;27.40;101019.00;;;;5112545;28;20435;-82
2021/06/10 10:15:04;;;;;;;14.82;13.30;;;26.70;1.00;27.40;101019.00;;;;5132141;27;20428;-83
2021/06/10 10:17:33;;;;;;;14.30;12.80;;;26.70;1.00;27.20;101023.00;;;;5114191;27;20435;-82
2021/06/10 10:20:01;;;;;;;12.80;11.57;;;26.40;1.00;27.20;101014.00;;;;5113754;27;20420;-83
2021/06/10 10:22:31;;;;;;;14.52;13.02;;;26.40;1.00;27.10;101013.00;;;;5103468;28;20430;-84
2021/06/10 10:24:59;;;;;;;14.23;12.73;;;26.20;1.00;27.20;101001.00;;;;5109975;28;20420;-83
2021/06/10 10:27:28;;;;;;;13.93;12.63;;;26.20;1.00;27.40;101014.00;;;;5106706;27;20679;-82
2021/06/10 10:29:56;;;;;;;13.88;12.57;;;26.50;1.00;27.50;101004.00;;;;5109892;28;20456;-82
2021/06/10 10:32:27;;;;;;;12.90;11.60;;;26.70;1.00;27.80;100993.00;;;;5109565;28;20423;-82
2021/06/10 10:35:27;;;;;;;11.97;10.77;;;27.00;1.00;27.90;100989.00;;;;5110344;28;20451;-83
2021/06/10 10:37:56;;;;;;;11.93;10.18;;;27.20;1.00;28.00;100982.00;;;;5116942;27;20427;-83
2021/06/10 10:40:27;;;;;;;12.30;9.10;;;27.40;1.00;28.10;100985.00;;;;5113556;28;20413;-83
2021/06/10 10:42:56;;;;;;;11.20;10.10;;;27.50;1.00;28.20;100989.00;;;;5113802;28;20420;-82
2021/06/10 10:45:25;;;;;;;12.05;10.85;;;27.60;1.00;28.30;100982.00;;;;5119988;27;20412;-82
2021/06/10 10:47:59;;;;;;;10.90;9.80;;;27.70;1.00;28.60;100988.00;;;;5115852;27;20425;-82
2021/06/10 10:50:38;;;;;;;13.90;12.70;;;27.90;1.00;28.50;100982.00;;;;5110348;28;20416;-82